sensor_id;sensor_type;location;lat;lon;timestamp;P1;durP1;ratioP1;P2;durP2;ratioP2
20306;SDS011;10312;52.434;13.206;2022-08-18T00:02:00;8.90;;;7.72;;
20306;SDS011;10312;52.434;13.206;2022-08-18T00:04:31;9.77;;;8.00;;
20306;SDS011;10312;52.434;13.206;2022-08-18T00:07:02;11.25;;;7.78;;
20306;SDS011;10312;52.434;13.206;2022-08-18T00:09:29;10.90;;;8.00;;
20306;SDS011;10312;52.434;13.206;2022-08-18T00:11:59;13.27;;;7.50;;
20306;SDS011;10312;52.434;13.206;2022-08-18T00:14:27;10.70;;;7.35;;
20306;SDS011;10312;52.434;13.206;2022-08-18T00:16:54;12.43;;;8.00;;
20306;SDS011;10312;52.434;13.206;2022-08-18T00:19:22;10.80;;;8.18;;
20306;SDS011;10312;52.434;13.206;2022-08-18T00:22:10;9.65;;;7.90;;
20306;SDS011;10312;52.434;13.206;2022-08-18T00:24:41;9.25;;;8.25;;
20306;SDS011;10312;52.434;13.206;2022-08-18T00:27:14;14.27;;;8.13;;
20306;SDS011;10312;52.434;13.206;2022-08-18T00:29:43;9.90;;;7.75;;
20306;SDS011;10312;52.434;13.206;2022-08-18T00:32:17;11.00;;;8.05;;
20306;SDS011;10312;52.434;13.206;2022-08-18T00:35:11;9.52;;;8.10;;
20306;SDS011;10312;52.434;13.206;2022-08-18T00:37:43;10.90;;;8.68;;
20306;SDS011;10312;52.434;13.206;2022-08-18T00:40:12;9.18;;;8.25;;
20306;SDS011;10312;52.434;13.206;2022-08-18T00:42:43;12.10;;;9.10;;
20306;SDS011;10312;52.434;13.206;2022-08-18T00:45:18;13.98;;;9.48;;
20306;SDS011;10312;52.434;13.206;2022-08-18T00:47:48;11.52;;;8.93;;
20306;SDS011;10312;52.434;13.206;2022-08-18T00:50:17;9.13;;;8.20;;
20306;SDS011;10312;52.434;13.206;2022-08-18T00:52:52;10.98;;;8.48;;
20306;SDS011;10312;52.434;13.206;2022-08-18T00:55:22;11.15;;;8.68;;
20306;SDS011;10312;52.434;13.206;2022-08-18T00:57:51;11.63;;;8.43;;
20306;SDS011;10312;52.434;13.206;2022-08-18T01:00:21;10.70;;;9.40;;
20306;SDS011;10312;52.434;13.206;2022-08-18T01:02:49;10.55;;;8.65;;
20306;SDS011;10312;52.434;13.206;2022-08-18T01:05:23;11.68;;;9.02;;
20306;SDS011;10312;52.434;13.206;2022-08-18T01:07:53;14.13;;;7.78;;
20306;SDS011;10312;52.434;13.206;2022-08-18T01:10:21;12.73;;;8.40;;
20306;SDS011;10312;52.434;13.206;2022-08-18T01:12:49;10.80;;;8.60;;
20306;SDS011;10312;52.434;13.206;2022-08-18T01:15:18;15.13;;;9.23;;
20306;SDS011;10312;52.434;13.206;2022-08-18T01:17:55;12.57;;;8.32;;
20306;SDS011;10312;52.434;13.206;2022-08-18T01:20:48;11.13;;;7.57;;
20306;SDS011;10312;52.434;13.206;2022-08-18T01:23:39;10.45;;;8.45;;
20306;SDS011;10312;52.434;13.206;2022-08-18T01:26:06;9.30;;;8.05;;
20306;SDS011;10312;52.434;13.206;2022-08-18T01:28:36;9.80;;;8.48;;
20306;SDS011;10312;52.434;13.206;2022-08-18T01:31:05;10.20;;;8.32;;
20306;SDS011;10312;52.434;13.206;2022-08-18T01:33:34;10.98;;;9.05;;
20306;SDS011;10312;52.434;13.206;2022-08-18T01:36:13;13.55;;;9.68;;
20306;SDS011;10312;52.434;13.206;2022-08-18T01:38:43;9.95;;;8.32;;
20306;SDS011;10312;52.434;13.206;2022-08-18T01:41:11;10.98;;;8.85;;
20306;SDS011;10312;52.434;13.206;2022-08-18T01:43:55;12.10;;;8.70;;
20306;SDS011;10312;52.434;13.206;2022-08-18T01:46:22;10.23;;;9.13;;
20306;SDS011;10312;52.434;13.206;2022-08-18T01:48:50;16.23;;;8.63;;
20306;SDS011;10312;52.434;13.206;2022-08-18T01:51:17;9.70;;;8.25;;
20306;SDS011;10312;52.434;13.206;2022-08-18T01:54:05;12.27;;;8.55;;
20306;SDS011;10312;52.434;13.206;2022-08-18T01:56:33;9.98;;;8.80;;
20306;SDS011;10312;52.434;13.206;2022-08-18T01:58:59;11.40;;;8.65;;
20306;SDS011;10312;52.434;13.206;2022-08-18T02:01:26;9.98;;;8.60;;
20306;SDS011;10312;52.434;13.206;2022-08-18T02:04:01;11.60;;;9.00;;
20306;SDS011;10312;52.434;13.206;2022-08-18T02:06:48;9.73;;;8.02;;
20306;SDS011;10312;52.434;13.206;2022-08-18T02:09:16;11.10;;;8.25;;
20306;SDS011;10312;52.434;13.206;2022-08-18T02:11:49;10.77;;;8.90;;
20306;SDS011;10312;52.434;13.206;2022-08-18T02:14:22;11.88;;;8.65;;
20306;SDS011;10312;52.434;13.206;2022-08-18T02:16:52;12.75;;;8.95;;
20306;SDS011;10312;52.434;13.206;2022-08-18T02:19:26;11.50;;;9.15;;
20306;SDS011;10312;52.434;13.206;2022-08-18T02:21:53;13.02;;;8.95;;
20306;SDS011;10312;52.434;13.206;2022-08-18T02:24:20;10.23;;;8.88;;
20306;SDS011;10312;52.434;13.206;2022-08-18T02:26:46;11.30;;;8.63;;
20306;SDS011;10312;52.434;13.206;2022-08-18T02:29:13;10.73;;;8.60;;
20306;SDS011;10312;52.434;13.206;2022-08-18T02:31:40;11.57;;;9.10;;
20306;SDS011;10312;52.434;13.206;2022-08-18T02:34:07;16.20;;;8.82;;
20306;SDS011;10312;52.434;13.206;2022-08-18T02:36:34;12.65;;;8.70;;
20306;SDS011;10312;52.434;13.206;2022-08-18T02:39:00;11.52;;;9.50;;
20306;SDS011;10312;52.434;13.206;2022-08-18T02:41:27;11.85;;;9.27;;
20306;SDS011;10312;52.434;13.206;2022-08-18T02:43:55;10.80;;;8.98;;
20306;SDS011;10312;52.434;13.206;2022-08-18T02:46:22;16.42;;;8.98;;
20306;SDS011;10312;52.434;13.206;2022-08-18T02:48:55;12.65;;;9.15;;
20306;SDS011;10312;52.434;13.206;2022-08-18T02:51:22;13.00;;;8.95;;
20306;SDS011;10312;52.434;13.206;2022-08-18T02:53:51;11.85;;;9.65;;
20306;SDS011;10312;52.434;13.206;2022-08-18T02:56:20;11.82;;;9.35;;
20306;SDS011;10312;52.434;13.206;2022-08-18T02:59:08;12.02;;;9.40;;
20306;SDS011;10312;52.434;13.206;2022-08-18T03:01:40;12.15;;;9.18;;
20306;SDS011;10312;52.434;13.206;2022-08-18T03:04:10;10.95;;;9.25;;
20306;SDS011;10312;52.434;13.206;2022-08-18T03:06:39;11.18;;;9.27;;
20306;SDS011;10312;52.434;13.206;2022-08-18T03:09:08;12.38;;;9.40;;
20306;SDS011;10312;52.434;13.206;2022-08-18T03:11:35;11.52;;;9.43;;
20306;SDS011;10312;52.434;13.206;2022-08-18T03:14:03;12.45;;;9.57;;
20306;SDS011;10312;52.434;13.206;2022-08-18T03:16:31;11.75;;;9.88;;
20306;SDS011;10312;52.434;13.206;2022-08-18T03:18:59;12.23;;;9.30;;
20306;SDS011;10312;52.434;13.206;2022-08-18T03:21:30;14.10;;;9.18;;
20306;SDS011;10312;52.434;13.206;2022-08-18T03:24:00;13.25;;;9.73;;
20306;SDS011;10312;52.434;13.206;2022-08-18T03:26:35;13.98;;;10.05;;
20306;SDS011;10312;52.434;13.206;2022-08-18T03:29:07;11.50;;;9.75;;
20306;SDS011;10312;52.434;13.206;2022-08-18T03:31:34;11.20;;;8.93;;
20306;SDS011;10312;52.434;13.206;2022-08-18T03:34:05;12.90;;;9.50;;
20306;SDS011;10312;52.434;13.206;2022-08-18T03:36:33;11.52;;;10.07;;
20306;SDS011;10312;52.434;13.206;2022-08-18T03:39:06;15.32;;;9.48;;
20306;SDS011;10312;52.434;13.206;2022-08-18T03:41:35;12.23;;;10.00;;
20306;SDS011;10312;52.434;13.206;2022-08-18T03:44:23;12.32;;;10.45;;
20306;SDS011;10312;52.434;13.206;2022-08-18T03:46:50;11.50;;;9.90;;
20306;SDS011;10312;52.434;13.206;2022-08-18T03:49:17;12.20;;;10.18;;
20306;SDS011;10312;52.434;13.206;2022-08-18T03:51:46;12.90;;;9.57;;
20306;SDS011;10312;52.434;13.206;2022-08-18T03:54:15;10.70;;;9.50;;
20306;SDS011;10312;52.434;13.206;2022-08-18T03:56:43;11.70;;;9.25;;
20306;SDS011;10312;52.434;13.206;2022-08-18T03:59:12;11.57;;;9.50;;
20306;SDS011;10312;52.434;13.206;2022-08-18T04:01:50;11.88;;;10.38;;
20306;SDS011;10312;52.434;13.206;2022-08-18T04:04:22;15.05;;;10.52;;
20306;SDS011;10312;52.434;13.206;2022-08-18T04:06:53;10.93;;;9.75;;
20306;SDS011;10312;52.434;13.206;2022-08-18T04:09:24;11.90;;;9.85;;
20306;SDS011;10312;52.434;13.206;2022-08-18T04:11:53;13.30;;;10.45;;
20306;SDS011;10312;52.434;13.206;2022-08-18T04:14:21;14.60;;;10.70;;
20306;SDS011;10312;52.434;13.206;2022-08-18T04:16:50;11.73;;;10.48;;
20306;SDS011;10312;52.434;13.206;2022-08-18T04:19:17;10.60;;;9.50;;
20306;SDS011;10312;52.434;13.206;2022-08-18T04:21:52;13.57;;;10.00;;
20306;SDS011;10312;52.434;13.206;2022-08-18T04:24:19;14.13;;;9.63;;
20306;SDS011;10312;52.434;13.206;2022-08-18T04:26:46;17.10;;;10.27;;
20306;SDS011;10312;52.434;13.206;2022-08-18T04:29:14;10.55;;;9.10;;
20306;SDS011;10312;52.434;13.206;2022-08-18T04:31:43;13.15;;;9.73;;
20306;SDS011;10312;52.434;13.206;2022-08-18T04:34:10;12.23;;;9.65;;
20306;SDS011;10312;52.434;13.206;2022-08-18T04:36:38;12.13;;;9.68;;
20306;SDS011;10312;52.434;13.206;2022-08-18T04:39:05;11.98;;;10.07;;
20306;SDS011;10312;52.434;13.206;2022-08-18T04:41:33;15.68;;;10.02;;
20306;SDS011;10312;52.434;13.206;2022-08-18T04:44:02;12.13;;;10.25;;
20306;SDS011;10312;52.434;13.206;2022-08-18T04:46:33;11.93;;;9.82;;
20306;SDS011;10312;52.434;13.206;2022-08-18T04:49:05;12.32;;;10.10;;
20306;SDS011;10312;52.434;13.206;2022-08-18T04:51:33;19.17;;;10.48;;
20306;SDS011;10312;52.434;13.206;2022-08-18T04:54:22;13.23;;;10.25;;
20306;SDS011;10312;52.434;13.206;2022-08-18T04:56:51;18.17;;;10.57;;
20306;SDS011;10312;52.434;13.206;2022-08-18T04:59:18;11.52;;;10.18;;
20306;SDS011;10312;52.434;13.206;2022-08-18T05:01:45;11.77;;;10.48;;
20306;SDS011;10312;52.434;13.206;2022-08-18T05:04:14;16.15;;;10.63;;
20306;SDS011;10312;52.434;13.206;2022-08-18T05:06:42;12.70;;;10.52;;
20306;SDS011;10312;52.434;13.206;2022-08-18T05:09:10;11.73;;;10.32;;
20306;SDS011;10312;52.434;13.206;2022-08-18T05:11:42;12.20;;;10.90;;
20306;SDS011;10312;52.434;13.206;2022-08-18T05:14:10;12.05;;;10.48;;
20306;SDS011;10312;52.434;13.206;2022-08-18T05:16:37;13.98;;;10.02;;
20306;SDS011;10312;52.434;13.206;2022-08-18T05:19:15;14.32;;;10.80;;
20306;SDS011;10312;52.434;13.206;2022-08-18T05:21:50;12.80;;;11.07;;
20306;SDS011;10312;52.434;13.206;2022-08-18T05:24:18;12.65;;;10.85;;
20306;SDS011;10312;52.434;13.206;2022-08-18T05:26:47;12.85;;;10.60;;
20306;SDS011;10312;52.434;13.206;2022-08-18T05:29:14;13.38;;;10.38;;
20306;SDS011;10312;52.434;13.206;2022-08-18T05:31:45;13.75;;;11.15;;
20306;SDS011;10312;52.434;13.206;2022-08-18T05:34:13;12.82;;;11.30;;
20306;SDS011;10312;52.434;13.206;2022-08-18T05:36:50;14.13;;;10.48;;
20306;SDS011;10312;52.434;13.206;2022-08-18T05:39:28;15.02;;;9.95;;
20306;SDS011;10312;52.434;13.206;2022-08-18T05:42:05;11.93;;;10.57;;
20306;SDS011;10312;52.434;13.206;2022-08-18T05:44:34;14.40;;;10.35;;
20306;SDS011;10312;52.434;13.206;2022-08-18T05:47:13;12.18;;;10.52;;
20306;SDS011;10312;52.434;13.206;2022-08-18T05:49:45;11.52;;;10.32;;
20306;SDS011;10312;52.434;13.206;2022-08-18T05:52:16;12.65;;;10.50;;
20306;SDS011;10312;52.434;13.206;2022-08-18T05:54:47;12.35;;;10.80;;
20306;SDS011;10312;52.434;13.206;2022-08-18T05:57:37;14.80;;;10.90;;
20306;SDS011;10312;52.434;13.206;2022-08-18T06:00:19;13.57;;;10.38;;
20306;SDS011;10312;52.434;13.206;2022-08-18T06:02:54;15.68;;;10.20;;
20306;SDS011;10312;52.434;13.206;2022-08-18T06:05:27;14.45;;;10.50;;
20306;SDS011;10312;52.434;13.206;2022-08-18T06:08:11;19.77;;;10.90;;
20306;SDS011;10312;52.434;13.206;2022-08-18T06:10:40;13.80;;;10.25;;
20306;SDS011;10312;52.434;13.206;2022-08-18T06:13:15;12.23;;;10.50;;
20306;SDS011;10312;52.434;13.206;2022-08-18T06:16:04;12.98;;;10.10;;
20306;SDS011;10312;52.434;13.206;2022-08-18T06:21:40;12.80;;;10.15;;
20306;SDS011;10312;52.434;13.206;2022-08-18T06:24:24;11.70;;;10.18;;
20306;SDS011;10312;52.434;13.206;2022-08-18T06:37:52;12.40;;;10.48;;
20306;SDS011;10312;52.434;13.206;2022-08-18T06:40:38;15.50;;;10.38;;
20306;SDS011;10312;52.434;13.206;2022-08-18T06:43:06;13.45;;;9.57;;
20306;SDS011;10312;52.434;13.206;2022-08-18T06:45:36;15.95;;;10.82;;
20306;SDS011;10312;52.434;13.206;2022-08-18T06:48:17;14.30;;;10.45;;
20306;SDS011;10312;52.434;13.206;2022-08-18T06:50:55;13.32;;;10.35;;
20306;SDS011;10312;52.434;13.206;2022-08-18T06:59:15;13.48;;;10.35;;
20306;SDS011;10312;52.434;13.206;2022-08-18T07:01:44;14.40;;;11.10;;
20306;SDS011;10312;52.434;13.206;2022-08-18T07:07:14;13.55;;;10.45;;
20306;SDS011;10312;52.434;13.206;2022-08-18T07:10:28;14.52;;;11.07;;
20306;SDS011;10312;52.434;13.206;2022-08-18T07:13:37;13.35;;;11.25;;
20306;SDS011;10312;52.434;13.206;2022-08-18T07:15:51;12.68;;;11.30;;
20306;SDS011;10312;52.434;13.206;2022-08-18T07:18:21;14.30;;;10.68;;
20306;SDS011;10312;52.434;13.206;2022-08-18T07:20:55;13.30;;;10.43;;
20306;SDS011;10312;52.434;13.206;2022-08-18T07:23:36;12.43;;;10.95;;
20306;SDS011;10312;52.434;13.206;2022-08-18T07:26:11;12.38;;;10.82;;
20306;SDS011;10312;52.434;13.206;2022-08-18T07:28:48;12.48;;;10.70;;
20306;SDS011;10312;52.434;13.206;2022-08-18T07:31:37;12.35;;;11.05;;
20306;SDS011;10312;52.434;13.206;2022-08-18T07:34:09;16.00;;;11.43;;
20306;SDS011;10312;52.434;13.206;2022-08-18T07:36:47;17.50;;;12.20;;
20306;SDS011;10312;52.434;13.206;2022-08-18T07:39:22;11.75;;;10.55;;
20306;SDS011;10312;52.434;13.206;2022-08-18T07:48:12;13.77;;;10.00;;
20306;SDS011;10312;52.434;13.206;2022-08-18T07:54:01;13.77;;;10.57;;
20306;SDS011;10312;52.434;13.206;2022-08-18T07:57:08;12.00;;;10.30;;
20306;SDS011;10312;52.434;13.206;2022-08-18T08:02:24;12.85;;;9.63;;
20306;SDS011;10312;52.434;13.206;2022-08-18T08:07:39;12.80;;;10.40;;
20306;SDS011;10312;52.434;13.206;2022-08-18T08:10:23;13.05;;;10.98;;
20306;SDS011;10312;52.434;13.206;2022-08-18T08:13:00;12.63;;;10.95;;
20306;SDS011;10312;52.434;13.206;2022-08-18T08:16:01;15.02;;;10.52;;
20306;SDS011;10312;52.434;13.206;2022-08-18T08:18:43;12.80;;;10.88;;
20306;SDS011;10312;52.434;13.206;2022-08-18T08:21:19;12.30;;;10.82;;
20306;SDS011;10312;52.434;13.206;2022-08-18T08:23:55;13.60;;;10.95;;
20306;SDS011;10312;52.434;13.206;2022-08-18T08:29:37;18.92;;;11.35;;
20306;SDS011;10312;52.434;13.206;2022-08-18T08:32:16;11.77;;;10.18;;
20306;SDS011;10312;52.434;13.206;2022-08-18T08:34:51;11.88;;;10.63;;
20306;SDS011;10312;52.434;13.206;2022-08-18T08:37:23;10.93;;;9.77;;
20306;SDS011;10312;52.434;13.206;2022-08-18T08:39:55;11.48;;;10.27;;
20306;SDS011;10312;52.434;13.206;2022-08-18T08:42:59;12.35;;;9.88;;
20306;SDS011;10312;52.434;13.206;2022-08-18T08:45:34;10.75;;;9.18;;
20306;SDS011;10312;52.434;13.206;2022-08-18T08:48:05;14.80;;;10.93;;
20306;SDS011;10312;52.434;13.206;2022-08-18T08:50:48;16.25;;;10.48;;
20306;SDS011;10312;52.434;13.206;2022-08-18T08:53:42;13.35;;;10.27;;
20306;SDS011;10312;52.434;13.206;2022-08-18T08:56:14;14.15;;;11.07;;
20306;SDS011;10312;52.434;13.206;2022-08-18T08:58:43;11.38;;;9.93;;
20306;SDS011;10312;52.434;13.206;2022-08-18T09:01:29;12.50;;;10.30;;
20306;SDS011;10312;52.434;13.206;2022-08-18T09:04:15;15.07;;;10.98;;
20306;SDS011;10312;52.434;13.206;2022-08-18T09:06:54;13.20;;;9.98;;
20306;SDS011;10312;52.434;13.206;2022-08-18T09:09:47;13.88;;;10.20;;
20306;SDS011;10312;52.434;13.206;2022-08-18T09:23:47;11.77;;;10.23;;
20306;SDS011;10312;52.434;13.206;2022-08-18T09:37:54;12.63;;;9.13;;
20306;SDS011;10312;52.434;13.206;2022-08-18T09:40:49;12.15;;;9.32;;
20306;SDS011;10312;52.434;13.206;2022-08-18T09:43:39;13.88;;;8.95;;
20306;SDS011;10312;52.434;13.206;2022-08-18T09:51:48;11.15;;;9.13;;
20306;SDS011;10312;52.434;13.206;2022-08-18T09:54:21;12.50;;;8.52;;
20306;SDS011;10312;52.434;13.206;2022-08-18T10:02:01;10.77;;;9.68;;
20306;SDS011;10312;52.434;13.206;2022-08-18T10:13:42;9.25;;;8.35;;
20306;SDS011;10312;52.434;13.206;2022-08-18T10:19:32;9.80;;;8.57;;
20306;SDS011;10312;52.434;13.206;2022-08-18T10:22:11;11.30;;;8.50;;
20306;SDS011;10312;52.434;13.206;2022-08-18T10:24:51;18.52;;;8.60;;
20306;SDS011;10312;52.434;13.206;2022-08-18T10:27:34;9.73;;;8.73;;
20306;SDS011;10312;52.434;13.206;2022-08-18T10:36:39;12.55;;;8.50;;
20306;SDS011;10312;52.434;13.206;2022-08-18T10:44:48;11.30;;;8.65;;
20306;SDS011;10312;52.434;13.206;2022-08-18T10:47:25;10.50;;;8.07;;
20306;SDS011;10312;52.434;13.206;2022-08-18T10:50:00;11.45;;;7.82;;
20306;SDS011;10312;52.434;13.206;2022-08-18T10:55:47;11.43;;;8.07;;
20306;SDS011;10312;52.434;13.206;2022-08-18T11:04:10;8.63;;;7.28;;
20306;SDS011;10312;52.434;13.206;2022-08-18T11:07:04;9.43;;;7.80;;
20306;SDS011;10312;52.434;13.206;2022-08-18T11:09:34;8.73;;;7.82;;
20306;SDS011;10312;52.434;13.206;2022-08-18T11:12:07;8.13;;;7.25;;
20306;SDS011;10312;52.434;13.206;2022-08-18T11:20:19;9.15;;;7.15;;
20306;SDS011;10312;52.434;13.206;2022-08-18T11:22:56;9.68;;;7.28;;
20306;SDS011;10312;52.434;13.206;2022-08-18T11:25:30;9.05;;;6.90;;
20306;SDS011;10312;52.434;13.206;2022-08-18T11:27:59;9.80;;;6.90;;
20306;SDS011;10312;52.434;13.206;2022-08-18T11:30:28;12.90;;;7.43;;
20306;SDS011;10312;52.434;13.206;2022-08-18T11:33:02;9.07;;;6.88;;
20306;SDS011;10312;52.434;13.206;2022-08-18T11:35:31;9.63;;;7.15;;
20306;SDS011;10312;52.434;13.206;2022-08-18T11:38:11;9.20;;;6.95;;
20306;SDS011;10312;52.434;13.206;2022-08-18T11:41:18;8.32;;;6.75;;
20306;SDS011;10312;52.434;13.206;2022-08-18T11:43:53;8.85;;;6.50;;
20306;SDS011;10312;52.434;13.206;2022-08-18T11:46:26;6.30;;;5.70;;
20306;SDS011;10312;52.434;13.206;2022-08-18T11:48:58;11.15;;;6.60;;
20306;SDS011;10312;52.434;13.206;2022-08-18T11:51:28;8.50;;;6.05;;
20306;SDS011;10312;52.434;13.206;2022-08-18T11:53:59;6.78;;;6.18;;
20306;SDS011;10312;52.434;13.206;2022-08-18T11:56:50;8.13;;;6.25;;
20306;SDS011;10312;52.434;13.206;2022-08-18T12:02:15;6.85;;;5.55;;
20306;SDS011;10312;52.434;13.206;2022-08-18T12:04:43;6.75;;;5.53;;
20306;SDS011;10312;52.434;13.206;2022-08-18T12:07:11;6.63;;;5.25;;
20306;SDS011;10312;52.434;13.206;2022-08-18T12:10:08;6.20;;;5.60;;
20306;SDS011;10312;52.434;13.206;2022-08-18T12:12:58;7.57;;;5.40;;
20306;SDS011;10312;52.434;13.206;2022-08-18T12:15:30;9.55;;;5.45;;
20306;SDS011;10312;52.434;13.206;2022-08-18T12:18:18;9.32;;;6.25;;
20306;SDS011;10312;52.434;13.206;2022-08-18T12:20:58;6.53;;;5.40;;
20306;SDS011;10312;52.434;13.206;2022-08-18T12:23:28;7.20;;;5.72;;
20306;SDS011;10312;52.434;13.206;2022-08-18T12:26:15;7.60;;;5.53;;
20306;SDS011;10312;52.434;13.206;2022-08-18T12:29:09;6.35;;;5.22;;
20306;SDS011;10312;52.434;13.206;2022-08-18T12:31:37;6.15;;;5.20;;
20306;SDS011;10312;52.434;13.206;2022-08-18T12:34:24;6.57;;;4.90;;
20306;SDS011;10312;52.434;13.206;2022-08-18T12:36:55;8.95;;;5.43;;
20306;SDS011;10312;52.434;13.206;2022-08-18T12:39:23;6.32;;;4.60;;
20306;SDS011;10312;52.434;13.206;2022-08-18T12:41:50;6.43;;;4.60;;
20306;SDS011;10312;52.434;13.206;2022-08-18T12:44:17;6.97;;;5.07;;
20306;SDS011;10312;52.434;13.206;2022-08-18T12:46:45;5.22;;;4.72;;
20306;SDS011;10312;52.434;13.206;2022-08-18T12:49:23;7.00;;;4.57;;
20306;SDS011;10312;52.434;13.206;2022-08-18T12:51:52;8.50;;;4.90;;
20306;SDS011;10312;52.434;13.206;2022-08-18T12:54:21;6.38;;;5.00;;
20306;SDS011;10312;52.434;13.206;2022-08-18T12:56:51;6.53;;;4.90;;
20306;SDS011;10312;52.434;13.206;2022-08-18T12:59:19;6.85;;;5.00;;
20306;SDS011;10312;52.434;13.206;2022-08-18T13:01:49;7.43;;;4.32;;
20306;SDS011;10312;52.434;13.206;2022-08-18T13:04:23;6.10;;;4.78;;
20306;SDS011;10312;52.434;13.206;2022-08-18T13:06:52;5.40;;;4.90;;
20306;SDS011;10312;52.434;13.206;2022-08-18T13:09:27;8.30;;;4.97;;
20306;SDS011;10312;52.434;13.206;2022-08-18T13:12:13;5.82;;;5.28;;
20306;SDS011;10312;52.434;13.206;2022-08-18T13:14:42;6.38;;;5.20;;
20306;SDS011;10312;52.434;13.206;2022-08-18T13:17:10;6.22;;;4.90;;
20306;SDS011;10312;52.434;13.206;2022-08-18T13:19:58;6.15;;;5.55;;
20306;SDS011;10312;52.434;13.206;2022-08-18T13:22:26;6.47;;;5.63;;
20306;SDS011;10312;52.434;13.206;2022-08-18T13:24:59;8.30;;;5.60;;
20306;SDS011;10312;52.434;13.206;2022-08-18T13:27:26;5.78;;;5.28;;
20306;SDS011;10312;52.434;13.206;2022-08-18T13:30:00;6.15;;;5.28;;
20306;SDS011;10312;52.434;13.206;2022-08-18T13:32:49;7.80;;;6.05;;
20306;SDS011;10312;52.434;13.206;2022-08-18T13:35:25;7.70;;;5.15;;
20306;SDS011;10312;52.434;13.206;2022-08-18T13:38:04;7.15;;;5.30;;
20306;SDS011;10312;52.434;13.206;2022-08-18T13:40:44;6.47;;;5.75;;
20306;SDS011;10312;52.434;13.206;2022-08-18T13:43:14;7.93;;;5.90;;
20306;SDS011;10312;52.434;13.206;2022-08-18T13:45:43;7.75;;;5.60;;
20306;SDS011;10312;52.434;13.206;2022-08-18T13:48:18;12.63;;;6.20;;
20306;SDS011;10312;52.434;13.206;2022-08-18T13:50:45;6.50;;;5.50;;
20306;SDS011;10312;52.434;13.206;2022-08-18T13:53:17;8.88;;;5.95;;
20306;SDS011;10312;52.434;13.206;2022-08-18T13:55:45;9.20;;;6.28;;
20306;SDS011;10312;52.434;13.206;2022-08-18T13:58:14;10.88;;;6.28;;
20306;SDS011;10312;52.434;13.206;2022-08-18T14:00:46;8.25;;;6.05;;
20306;SDS011;10312;52.434;13.206;2022-08-18T14:03:20;10.90;;;5.72;;
20306;SDS011;10312;52.434;13.206;2022-08-18T14:06:09;8.93;;;5.82;;
20306;SDS011;10312;52.434;13.206;2022-08-18T14:08:39;6.90;;;5.78;;
20306;SDS011;10312;52.434;13.206;2022-08-18T14:11:06;9.02;;;5.70;;
20306;SDS011;10312;52.434;13.206;2022-08-18T14:13:33;6.90;;;5.25;;
20306;SDS011;10312;52.434;13.206;2022-08-18T14:16:08;8.23;;;5.93;;
20306;SDS011;10312;52.434;13.206;2022-08-18T14:18:35;7.00;;;5.72;;
20306;SDS011;10312;52.434;13.206;2022-08-18T14:21:04;9.88;;;6.10;;
20306;SDS011;10312;52.434;13.206;2022-08-18T14:23:50;8.73;;;6.07;;
20306;SDS011;10312;52.434;13.206;2022-08-18T14:26:39;11.70;;;5.95;;
20306;SDS011;10312;52.434;13.206;2022-08-18T14:29:17;7.65;;;6.15;;
20306;SDS011;10312;52.434;13.206;2022-08-18T14:32:04;9.90;;;6.00;;
20306;SDS011;10312;52.434;13.206;2022-08-18T14:34:32;9.30;;;5.90;;
20306;SDS011;10312;52.434;13.206;2022-08-18T14:37:01;10.63;;;5.47;;
20306;SDS011;10312;52.434;13.206;2022-08-18T14:39:28;9.05;;;5.90;;
20306;SDS011;10312;52.434;13.206;2022-08-18T14:41:55;7.13;;;5.53;;
20306;SDS011;10312;52.434;13.206;2022-08-18T14:44:24;8.10;;;4.93;;
20306;SDS011;10312;52.434;13.206;2022-08-18T14:46:57;8.40;;;5.07;;
20306;SDS011;10312;52.434;13.206;2022-08-18T14:49:25;6.35;;;5.20;;
20306;SDS011;10312;52.434;13.206;2022-08-18T14:51:58;5.80;;;4.88;;
20306;SDS011;10312;52.434;13.206;2022-08-18T14:54:25;6.25;;;4.38;;
20306;SDS011;10312;52.434;13.206;2022-08-18T14:56:55;6.22;;;4.70;;
20306;SDS011;10312;52.434;13.206;2022-08-18T14:59:23;8.88;;;4.72;;
20306;SDS011;10312;52.434;13.206;2022-08-18T15:01:51;7.93;;;4.85;;
20306;SDS011;10312;52.434;13.206;2022-08-18T15:04:19;5.50;;;4.90;;
20306;SDS011;10312;52.434;13.206;2022-08-18T15:06:47;7.38;;;4.45;;
20306;SDS011;10312;52.434;13.206;2022-08-18T15:09:21;5.63;;;4.68;;
20306;SDS011;10312;52.434;13.206;2022-08-18T15:11:49;8.90;;;5.22;;
20306;SDS011;10312;52.434;13.206;2022-08-18T15:14:19;6.82;;;5.20;;
20306;SDS011;10312;52.434;13.206;2022-08-18T15:16:58;7.38;;;5.20;;
20306;SDS011;10312;52.434;13.206;2022-08-18T15:19:39;15.13;;;5.70;;
20306;SDS011;10312;52.434;13.206;2022-08-18T15:22:26;7.43;;;5.57;;
20306;SDS011;10312;52.434;13.206;2022-08-18T15:25:13;6.20;;;4.93;;
20306;SDS011;10312;52.434;13.206;2022-08-18T15:28:20;8.38;;;5.35;;
20306;SDS011;10312;52.434;13.206;2022-08-18T15:30:50;11.40;;;5.13;;
20306;SDS011;10312;52.434;13.206;2022-08-18T15:33:37;10.63;;;5.05;;
20306;SDS011;10312;52.434;13.206;2022-08-18T15:36:04;15.75;;;6.00;;
20306;SDS011;10312;52.434;13.206;2022-08-18T15:38:35;10.73;;;5.82;;
20306;SDS011;10312;52.434;13.206;2022-08-18T15:41:02;10.48;;;6.30;;
20306;SDS011;10312;52.434;13.206;2022-08-18T15:43:34;9.40;;;5.68;;
20306;SDS011;10312;52.434;13.206;2022-08-18T15:46:11;9.10;;;6.13;;
20306;SDS011;10312;52.434;13.206;2022-08-18T15:48:44;6.72;;;5.43;;
20306;SDS011;10312;52.434;13.206;2022-08-18T15:51:11;10.73;;;5.07;;
20306;SDS011;10312;52.434;13.206;2022-08-18T15:53:42;6.35;;;5.35;;
20306;SDS011;10312;52.434;13.206;2022-08-18T15:56:21;9.00;;;5.00;;
20306;SDS011;10312;52.434;13.206;2022-08-18T15:58:51;12.32;;;5.55;;
20306;SDS011;10312;52.434;13.206;2022-08-18T16:01:18;10.48;;;5.95;;
20306;SDS011;10312;52.434;13.206;2022-08-18T16:03:58;8.10;;;5.50;;
20306;SDS011;10312;52.434;13.206;2022-08-18T16:06:27;8.43;;;5.68;;
20306;SDS011;10312;52.434;13.206;2022-08-18T16:08:57;9.27;;;5.18;;
20306;SDS011;10312;52.434;13.206;2022-08-18T16:11:24;6.13;;;5.22;;
20306;SDS011;10312;52.434;13.206;2022-08-18T16:13:55;9.60;;;5.57;;
20306;SDS011;10312;52.434;13.206;2022-08-18T16:16:24;9.95;;;5.80;;
20306;SDS011;10312;52.434;13.206;2022-08-18T16:19:02;9.20;;;5.60;;
20306;SDS011;10312;52.434;13.206;2022-08-18T16:21:30;8.15;;;5.88;;
20306;SDS011;10312;52.434;13.206;2022-08-18T16:23:57;8.05;;;6.25;;
20306;SDS011;10312;52.434;13.206;2022-08-18T16:26:24;6.78;;;5.10;;
20306;SDS011;10312;52.434;13.206;2022-08-18T16:28:51;9.00;;;5.47;;
20306;SDS011;10312;52.434;13.206;2022-08-18T16:31:19;10.68;;;6.15;;
20306;SDS011;10312;52.434;13.206;2022-08-18T16:33:53;12.90;;;5.90;;
20306;SDS011;10312;52.434;13.206;2022-08-18T16:36:22;8.07;;;6.00;;
20306;SDS011;10312;52.434;13.206;2022-08-18T16:38:52;8.70;;;5.93;;
20306;SDS011;10312;52.434;13.206;2022-08-18T16:41:23;8.95;;;5.55;;
20306;SDS011;10312;52.434;13.206;2022-08-18T16:43:52;18.52;;;6.53;;
20306;SDS011;10312;52.434;13.206;2022-08-18T16:46:20;9.75;;;5.53;;
20306;SDS011;10312;52.434;13.206;2022-08-18T16:48:55;7.90;;;5.65;;
20306;SDS011;10312;52.434;13.206;2022-08-18T16:51:23;8.65;;;5.68;;
20306;SDS011;10312;52.434;13.206;2022-08-18T16:53:52;9.75;;;5.75;;
20306;SDS011;10312;52.434;13.206;2022-08-18T16:56:23;11.75;;;5.20;;
20306;SDS011;10312;52.434;13.206;2022-08-18T16:58:52;7.60;;;5.47;;